sensor_id;sensor_type;location;lat;lon;timestamp;pressure;altitude;pressure_sealevel;temperature;humidity
61318;BME280;47201;40.428;-8.436;2023-03-14T00:01:15;101289.25;;;10.34;100.00
61318;BME280;47201;40.428;-8.436;2023-03-14T00:03:16;101284.00;;;10.32;100.00
61318;BME280;47201;40.428;-8.436;2023-03-14T00:05:17;101278.78;;;10.30;100.00
61318;BME280;47201;40.428;-8.436;2023-03-14T00:07:37;101282.28;;;10.36;100.00
61318;BME280;47201;40.428;-8.436;2023-03-14T00:09:39;101284.03;;;10.35;100.00
61318;BME280;47201;40.428;-8.436;2023-03-14T00:11:39;101283.19;;;10.35;100.00
61318;BME280;47201;40.428;-8.436;2023-03-14T00:13:40;101281.38;;;10.30;100.00
61318;BME280;47201;40.428;-8.436;2023-03-14T00:15:40;101283.09;;;10.24;100.00
61318;BME280;47201;40.428;-8.436;2023-03-14T00:17:42;101285.63;;;10.18;100.00
61318;BME280;47201;40.428;-8.436;2023-03-14T00:20:02;101283.00;;;10.16;100.00
61318;BME280;47201;40.428;-8.436;2023-03-14T00:22:08;101281.19;;;10.10;100.00
61318;BME280;47201;40.428;-8.436;2023-03-14T00:24:08;101275.97;;;10.09;100.00
61318;BME280;47201;40.428;-8.436;2023-03-14T00:26:10;101284.59;;;10.00;100.00
61318;BME280;47201;40.428;-8.436;2023-03-14T00:28:29;101272.34;;;9.93;100.00
61318;BME280;47201;40.428;-8.436;2023-03-14T00:30:30;101284.50;;;9.92;100.00
61318;BME280;47201;40.428;-8.436;2023-03-14T00:32:49;101281.94;;;9.98;100.00
61318;BME280;47201;40.428;-8.436;2023-03-14T00:34:49;101275.00;;;10.02;100.00
61318;BME280;47201;40.428;-8.436;2023-03-14T00:37:09;101279.31;;;9.95;100.00
61318;BME280;47201;40.428;-8.436;2023-03-14T00:39:12;101282.69;;;9.85;100.00
61318;BME280;47201;40.428;-8.436;2023-03-14T00:41:14;101280.91;;;9.81;100.00
61318;BME280;47201;40.428;-8.436;2023-03-14T00:43:15;101278.31;;;9.84;100.00
61318;BME280;47201;40.428;-8.436;2023-03-14T00:45:16;101273.16;;;9.89;100.00
61318;BME280;47201;40.428;-8.436;2023-03-14T00:47:17;101285.34;;;9.88;100.00
61318;BME280;47201;40.428;-8.436;2023-03-14T00:49:18;101285.25;;;9.80;100.00
61318;BME280;47201;40.428;-8.436;2023-03-14T00:51:18;101282.50;;;9.69;100.00
61318;BME280;47201;40.428;-8.436;2023-03-14T00:53:19;101278.94;;;9.61;100.00
61318;BME280;47201;40.428;-8.436;2023-03-14T00:55:19;101285.00;;;9.59;100.00
61318;BME280;47201;40.428;-8.436;2023-03-14T00:57:20;101277.16;;;9.59;100.00
61318;BME280;47201;40.428;-8.436;2023-03-14T00:59:20;101291.13;;;9.62;100.00
61318;BME280;47201;40.428;-8.436;2023-03-14T01:01:40;101290.28;;;9.65;100.00
61318;BME280;47201;40.428;-8.436;2023-03-14T01:04:01;101290.28;;;9.65;100.00
61318;BME280;47201;40.428;-8.436;2023-03-14T01:06:13;101288.50;;;9.61;100.00
61318;BME280;47201;40.428;-8.436;2023-03-14T01:08:16;101284.97;;;9.56;100.00
61318;BME280;47201;40.428;-8.436;2023-03-14T01:10:16;101280.63;;;9.56;100.00
61318;BME280;47201;40.428;-8.436;2023-03-14T01:12:17;101287.66;;;9.60;100.00
61318;BME280;47201;40.428;-8.436;2023-03-14T01:14:36;101291.97;;;9.60;100.00
61318;BME280;47201;40.428;-8.436;2023-03-14T01:16:38;101296.34;;;9.59;100.00
61318;BME280;47201;40.428;-8.436;2023-03-14T01:18:39;101294.59;;;9.58;100.00
61318;BME280;47201;40.428;-8.436;2023-03-14T01:20:40;101294.59;;;9.58;100.00
61318;BME280;47201;40.428;-8.436;2023-03-14T01:22:58;101298.16;;;9.66;100.00
61318;BME280;47201;40.428;-8.436;2023-03-14T01:25:18;101300.78;;;9.66;100.00
61318;BME280;47201;40.428;-8.436;2023-03-14T01:27:19;101302.47;;;9.63;100.00
61318;BME280;47201;40.428;-8.436;2023-03-14T01:29:39;101300.59;;;9.52;100.00
61318;BME280;47201;40.428;-8.436;2023-03-14T01:31:40;101304.84;;;9.44;100.00
61318;BME280;47201;40.428;-8.436;2023-03-14T01:33:41;101291.66;;;9.35;100.00
61318;BME280;47201;40.428;-8.436;2023-03-14T01:35:43;101295.16;;;9.34;100.00
61318;BME280;47201;40.428;-8.436;2023-03-14T01:38:02;101302.09;;;9.35;100.00
61318;BME280;47201;40.428;-8.436;2023-03-14T01:40:03;101307.38;;;9.36;100.00
61318;BME280;47201;40.428;-8.436;2023-03-14T01:42:05;101299.53;;;9.36;100.00
61318;BME280;47201;40.428;-8.436;2023-03-14T01:44:12;101305.63;;;9.37;100.00
61318;BME280;47201;40.428;-8.436;2023-03-14T01:48:37;101310.75;;;9.31;100.00
61318;BME280;47201;40.428;-8.436;2023-03-14T01:50:39;101308.16;;;9.31;100.00
61318;BME280;47201;40.428;-8.436;2023-03-14T01:52:41;101316.03;;;9.34;100.00
61318;BME280;47201;40.428;-8.436;2023-03-14T01:55:06;101315.97;;;9.29;100.00
61318;BME280;47201;40.428;-8.436;2023-03-14T01:57:10;101314.13;;;9.22;100.00
61318;BME280;47201;40.428;-8.436;2023-03-14T01:59:12;101316.69;;;9.19;100.00
61318;BME280;47201;40.428;-8.436;2023-03-14T02:01:31;101316.59;;;9.13;100.00
61318;BME280;47201;40.428;-8.436;2023-03-14T02:03:52;101313.91;;;9.07;100.00
61318;BME280;47201;40.428;-8.436;2023-03-14T02:05:57;101313.88;;;9.05;100.00
61318;BME280;47201;40.428;-8.436;2023-03-14T02:08:01;101316.47;;;9.05;100.00
61318;BME280;47201;40.428;-8.436;2023-03-14T02:10:07;101324.34;;;9.08;100.00
61318;BME280;47201;40.428;-8.436;2023-03-14T02:12:09;101311.31;;;9.07;100.00
61318;BME280;47201;40.428;-8.436;2023-03-14T02:14:30;101318.13;;;8.97;100.00
61318;BME280;47201;40.428;-8.436;2023-03-14T02:17:04;101312.78;;;8.89;100.00
61318;BME280;47201;40.428;-8.436;2023-03-14T02:22:12;101305.88;;;8.91;100.00
61318;BME280;47201;40.428;-8.436;2023-03-14T02:24:25;101307.72;;;8.98;100.00
61318;BME280;47201;40.428;-8.436;2023-03-14T02:26:37;101308.72;;;9.10;100.00
61318;BME280;47201;40.428;-8.436;2023-03-14T02:28:57;101313.16;;;9.14;100.00
61318;BME280;47201;40.428;-8.436;2023-03-14T02:30:59;101308.84;;;9.17;100.00
61318;BME280;47201;40.428;-8.436;2023-03-14T02:35:07;101316.59;;;9.11;100.00
61318;BME280;47201;40.428;-8.436;2023-03-14T02:37:09;101307.88;;;9.11;100.00
61318;BME280;47201;40.428;-8.436;2023-03-14T02:41:14;101311.66;;;9.33;100.00
61318;BME280;47201;40.428;-8.436;2023-03-14T02:43:21;101306.59;;;9.45;100.00
61318;BME280;47201;40.428;-8.436;2023-03-14T02:45:50;101300.72;;;9.60;100.00
61318;BME280;47201;40.428;-8.436;2023-03-14T02:47:58;101309.47;;;9.68;100.00
61318;BME280;47201;40.428;-8.436;2023-03-14T02:50:20;101307.81;;;9.75;100.00
61318;BME280;47201;40.428;-8.436;2023-03-14T02:52:21;101313.94;;;9.77;100.00
61318;BME280;47201;40.428;-8.436;2023-03-14T02:54:22;101315.72;;;9.83;100.00
61318;BME280;47201;40.428;-8.436;2023-03-14T02:56:25;101311.41;;;9.83;100.00
61318;BME280;47201;40.428;-8.436;2023-03-14T02:58:44;101310.59;;;9.89;100.00
61318;BME280;47201;40.428;-8.436;2023-03-14T03:01:03;101315.00;;;9.95;100.00
61318;BME280;47201;40.428;-8.436;2023-03-14T03:03:23;101310.66;;;9.95;100.00
61318;BME280;47201;40.428;-8.436;2023-03-14T03:05:42;101308.97;;;10.00;100.00
61318;BME280;47201;40.428;-8.436;2023-03-14T03:08:02;101313.34;;;10.02;100.00
61318;BME280;47201;40.428;-8.436;2023-03-14T03:10:22;101305.50;;;10.00;100.00
61318;BME280;47201;40.428;-8.436;2023-03-14T03:12:41;101308.03;;;9.94;100.00
61318;BME280;47201;40.428;-8.436;2023-03-14T03:15:01;101302.72;;;9.86;100.00
61318;BME280;47201;40.428;-8.436;2023-03-14T03:17:04;101306.13;;;9.80;100.00
61318;BME280;47201;40.428;-8.436;2023-03-14T03:19:23;101308.72;;;9.77;100.00
61318;BME280;47201;40.428;-8.436;2023-03-14T03:21:25;101304.25;;;9.68;100.00
61318;BME280;47201;40.428;-8.436;2023-03-14T03:23:45;101305.03;;;9.58;100.00
61318;BME280;47201;40.428;-8.436;2023-03-14T03:25:49;101303.16;;;9.48;100.00
61318;BME280;47201;40.428;-8.436;2023-03-14T03:27:50;101303.78;;;9.31;100.00
61318;BME280;47201;40.428;-8.436;2023-03-14T03:29:52;101304.63;;;9.29;100.00
61318;BME280;47201;40.428;-8.436;2023-03-14T03:32:11;101304.50;;;9.18;100.00
61318;BME280;47201;40.428;-8.436;2023-03-14T03:34:30;101293.06;;;9.10;100.00
61318;BME280;47201;40.428;-8.436;2023-03-14T03:36:31;101293.91;;;9.07;100.00
61318;BME280;47201;40.428;-8.436;2023-03-14T03:38:50;101293.97;;;9.12;100.00
61318;BME280;47201;40.428;-8.436;2023-03-14T03:41:10;101298.28;;;9.10;100.00
61318;BME280;47201;40.428;-8.436;2023-03-14T03:43:31;101293.97;;;9.10;100.00
61318;BME280;47201;40.428;-8.436;2023-03-14T03:45:50;101300.03;;;9.08;100.00
61318;BME280;47201;40.428;-8.436;2023-03-14T03:47:50;101293.00;;;9.03;100.00
61318;BME280;47201;40.428;-8.436;2023-03-14T03:49:51;101291.28;;;9.04;100.00
61318;BME280;47201;40.428;-8.436;2023-03-14T03:51:52;101289.44;;;8.97;100.00
61318;BME280;47201;40.428;-8.436;2023-03-14T03:54:11;101286.78;;;8.95;100.00
61318;BME280;47201;40.428;-8.436;2023-03-14T03:56:12;101285.09;;;8.97;100.00
61318;BME280;47201;40.428;-8.436;2023-03-14T03:58:14;101292.91;;;8.97;100.00
61318;BME280;47201;40.428;-8.436;2023-03-14T04:00:34;101285.00;;;8.91;100.00
61318;BME280;47201;40.428;-8.436;2023-03-14T04:02:53;101285.94;;;8.95;100.00
61318;BME280;47201;40.428;-8.436;2023-03-14T04:04:57;101290.25;;;8.94;100.00
61318;BME280;47201;40.428;-8.436;2023-03-14T04:07:16;101292.91;;;8.97;100.00
61318;BME280;47201;40.428;-8.436;2023-03-14T04:09:35;101289.47;;;9.00;100.00
61318;BME280;47201;40.428;-8.436;2023-03-14T04:12:06;101297.22;;;8.95;100.00
61318;BME280;47201;40.428;-8.436;2023-03-14T04:14:16;101297.34;;;9.04;100.00
61318;BME280;47201;40.428;-8.436;2023-03-14T04:16:18;101300.81;;;9.05;100.00
61318;BME280;47201;40.428;-8.436;2023-03-14T04:18:20;101297.22;;;8.94;100.00
61318;BME280;47201;40.428;-8.436;2023-03-14T04:20:21;101300.50;;;8.82;100.00
61318;BME280;47201;40.428;-8.436;2023-03-14T04:22:21;101296.09;;;8.78;100.00
61318;BME280;47201;40.428;-8.436;2023-03-14T04:24:27;101297.13;;;8.89;100.00
61318;BME280;47201;40.428;-8.436;2023-03-14T04:26:46;101292.97;;;9.00;100.00
61318;BME280;47201;40.428;-8.436;2023-03-14T04:29:05;101297.41;;;9.08;100.00
61318;BME280;47201;40.428;-8.436;2023-03-14T04:31:09;101293.06;;;9.08;100.00
61318;BME280;47201;40.428;-8.436;2023-03-14T04:33:10;101291.22;;;9.01;100.00
61318;BME280;47201;40.428;-8.436;2023-03-14T04:35:18;101291.97;;;8.92;100.00
61318;BME280;47201;40.428;-8.436;2023-03-14T04:37:19;101290.06;;;8.82;100.00
61318;BME280;47201;40.428;-8.436;2023-03-14T04:39:20;101286.53;;;8.77;100.00
61318;BME280;47201;40.428;-8.436;2023-03-14T04:41:41;101291.06;;;8.88;100.00
61318;BME280;47201;40.428;-8.436;2023-03-14T04:43:44;101288.38;;;8.84;100.00
61318;BME280;47201;40.428;-8.436;2023-03-14T04:45:46;101290.06;;;8.82;100.00
61318;BME280;47201;40.428;-8.436;2023-03-14T04:47:48;101302.16;;;8.77;100.00
61318;BME280;47201;40.428;-8.436;2023-03-14T04:49:52;101297.66;;;8.68;100.00
61318;BME280;47201;40.428;-8.436;2023-03-14T04:52:11;101287.06;;;8.57;100.00
61318;BME280;47201;40.428;-8.436;2023-03-14T04:54:30;101294.91;;;8.57;100.00
61318;BME280;47201;40.428;-8.436;2023-03-14T04:56:33;101290.41;;;8.48;100.00
61318;BME280;47201;40.428;-8.436;2023-03-14T04:58:35;101297.25;;;8.43;100.00
61318;BME280;47201;40.428;-8.436;2023-03-14T05:00:55;101295.47;;;8.40;100.00
61318;BME280;47201;40.428;-8.436;2023-03-14T05:03:15;101306.66;;;8.33;100.00
61318;BME280;47201;40.428;-8.436;2023-03-14T05:05:39;101296.00;;;8.21;100.00
61318;BME280;47201;40.428;-8.436;2023-03-14T05:07:59;101301.19;;;8.19;100.00
61318;BME280;47201;40.428;-8.436;2023-03-14T05:10:18;101304.81;;;8.28;100.00
61318;BME280;47201;40.428;-8.436;2023-03-14T05:12:37;101302.13;;;8.23;100.00
61318;BME280;47201;40.428;-8.436;2023-03-14T05:14:56;101302.94;;;8.19;100.00
61318;BME280;47201;40.428;-8.436;2023-03-14T05:17:15;101303.53;;;8.05;100.00
61318;BME280;47201;40.428;-8.436;2023-03-14T05:19:36;101306.13;;;8.04;100.00
61318;BME280;47201;40.428;-8.436;2023-03-14T05:21:58;101309.59;;;8.04;100.00
61318;BME280;47201;40.428;-8.436;2023-03-14T05:24:17;101314.00;;;8.08;100.00
61318;BME280;47201;40.428;-8.436;2023-03-14T05:26:36;101321.06;;;8.14;100.00
61318;BME280;47201;40.428;-8.436;2023-03-14T05:28:53;101315.81;;;8.13;100.00
61318;BME280;47201;40.428;-8.436;2023-03-14T05:31:06;101318.19;;;8.00;100.00
61318;BME280;47201;40.428;-8.436;2023-03-14T05:33:32;101318.94;;;7.93;100.00
61318;BME280;47201;40.428;-8.436;2023-03-14T05:35:51;101322.28;;;7.87;100.00
61318;BME280;47201;40.428;-8.436;2023-03-14T05:38:10;101324.00;;;7.85;100.00
61318;BME280;47201;40.428;-8.436;2023-03-14T05:40:33;101328.41;;;7.88;100.00
61318;BME280;47201;40.428;-8.436;2023-03-14T05:42:50;101338.22;;;8.03;100.00
61318;BME280;47201;40.428;-8.436;2023-03-14T05:45:09;101334.19;;;8.19;100.00
61318;BME280;47201;40.428;-8.436;2023-03-14T05:47:24;101336.09;;;8.29;100.00
61318;BME280;47201;40.428;-8.436;2023-03-14T05:49:31;101346.66;;;8.37;100.00
61318;BME280;47201;40.428;-8.436;2023-03-14T05:51:51;101345.00;;;8.42;100.00
61318;BME280;47201;40.428;-8.436;2023-03-14T05:54:12;101343.25;;;8.42;100.00
61318;BME280;47201;40.428;-8.436;2023-03-14T05:56:39;101351.88;;;8.38;100.00
61318;BME280;47201;40.428;-8.436;2023-03-14T05:58:59;101350.06;;;8.34;100.00
61318;BME280;47201;40.428;-8.436;2023-03-14T06:01:07;101358.69;;;8.30;100.00
61318;BME280;47201;40.428;-8.436;2023-03-14T06:03:20;101362.03;;;8.23;100.00
61318;BME280;47201;40.428;-8.436;2023-03-14T06:05:22;101356.72;;;8.17;100.00
61318;BME280;47201;40.428;-8.436;2023-03-14T06:07:24;101355.78;;;8.13;100.00
61318;BME280;47201;40.428;-8.436;2023-03-14T06:09:28;101365.28;;;8.13;100.00
61318;BME280;47201;40.428;-8.436;2023-03-14T06:11:34;101366.16;;;8.12;100.00
61318;BME280;47201;40.428;-8.436;2023-03-14T06:13:37;101353.91;;;8.06;100.00
61318;BME280;47201;40.428;-8.436;2023-03-14T06:15:38;101356.53;;;8.09;100.00
61318;BME280;47201;40.428;-8.436;2023-03-14T06:17:57;101359.34;;;8.18;100.00
61318;BME280;47201;40.428;-8.436;2023-03-14T06:20:16;101361.22;;;8.27;100.00
61318;BME280;47201;40.428;-8.436;2023-03-14T06:22:16;101358.69;;;8.30;100.00
61318;BME280;47201;40.428;-8.436;2023-03-14T06:24:17;101361.31;;;8.32;100.00
61318;BME280;47201;40.428;-8.436;2023-03-14T06:26:21;101370.03;;;8.32;100.00
61318;BME280;47201;40.428;-8.436;2023-03-14T06:28:23;101365.66;;;8.31;100.00
61318;BME280;47201;40.428;-8.436;2023-03-14T06:30:27;101372.56;;;8.29;100.00
61318;BME280;47201;40.428;-8.436;2023-03-14T06:32:28;101365.50;;;8.23;100.00
61318;BME280;47201;40.428;-8.436;2023-03-14T06:34:46;101365.38;;;8.16;100.00
61318;BME280;47201;40.428;-8.436;2023-03-14T06:36:47;101357.38;;;8.08;100.00
61318;BME280;47201;40.428;-8.436;2023-03-14T06:38:48;101368.53;;;8.01;100.00
61318;BME280;47201;40.428;-8.436;2023-03-14T06:40:49;101366.72;;;7.95;100.00
61318;BME280;47201;40.428;-8.436;2023-03-14T06:42:59;101370.94;;;7.90;100.00
61318;BME280;47201;40.428;-8.436;2023-03-14T06:45:18;101373.38;;;7.81;100.00
61318;BME280;47201;40.428;-8.436;2023-03-14T06:47:19;101379.34;;;7.76;100.00
61318;BME280;47201;40.428;-8.436;2023-03-14T06:49:39;101366.28;;;7.73;100.00
61318;BME280;47201;40.428;-8.436;2023-03-14T06:51:40;101377.53;;;7.72;100.00
61318;BME280;47201;40.428;-8.436;2023-03-14T06:53:43;101379.19;;;7.69;100.00
61318;BME280;47201;40.428;-8.436;2023-03-14T06:55:43;101379.13;;;7.67;100.00
61318;BME280;47201;40.428;-8.436;2023-03-14T06:58:04;101381.69;;;7.64;100.00
61318;BME280;47201;40.428;-8.436;2023-03-14T07:00:11;101385.16;;;7.65;100.00
61318;BME280;47201;40.428;-8.436;2023-03-14T07:02:12;101384.28;;;7.64;100.00
61318;BME280;47201;40.428;-8.436;2023-03-14T07:04:14;101383.47;;;7.65;100.00
61318;BME280;47201;40.428;-8.436;2023-03-14T07:06:19;101390.38;;;7.65;100.00
61318;BME280;47201;40.428;-8.436;2023-03-14T07:08:19;101400.72;;;7.61;100.00
61318;BME280;47201;40.428;-8.436;2023-03-14T07:10:20;101399.00;;;7.62;100.00
61318;BME280;47201;40.428;-8.436;2023-03-14T07:12:20;101396.47;;;7.65;100.00
61318;BME280;47201;40.428;-8.436;2023-03-14T07:14:22;101407.09;;;7.76;100.00
61318;BME280;47201;40.428;-8.436;2023-03-14T07:16:23;101401.31;;;7.89;100.00
61318;BME280;47201;40.428;-8.436;2023-03-14T07:18:25;101399.88;;;8.05;100.00
61318;BME280;47201;40.428;-8.436;2023-03-14T07:20:26;101403.59;;;8.18;100.00
61318;BME280;47201;40.428;-8.436;2023-03-14T07:22:47;101402.13;;;8.31;100.00
61318;BME280;47201;40.428;-8.436;2023-03-14T07:24:48;101406.69;;;8.43;100.00
61318;BME280;47201;40.428;-8.436;2023-03-14T07:26:48;101413.16;;;8.62;100.00
61318;BME280;47201;40.428;-8.436;2023-03-14T07:28:49;101413.44;;;8.81;100.00
61318;BME280;47201;40.428;-8.436;2023-03-14T07:30:53;101409.41;;;8.98;100.00
61318;BME280;47201;40.428;-8.436;2023-03-14T07:33:01;101415.91;;;9.25;100.00
61318;BME280;47201;40.428;-8.436;2023-03-14T07:35:21;101417.22;;;9.55;100.00
61318;BME280;47201;40.428;-8.436;2023-03-14T07:37:21;101414.31;;;9.99;100.00
61318;BME280;47201;40.428;-8.436;2023-03-14T07:39:40;101420.28;;;10.66;100.00
61318;BME280;47201;40.428;-8.436;2023-03-14T07:41:59;101425.28;;;11.49;100.00
61318;BME280;47201;40.428;-8.436;2023-03-14T07:44:18;101432.69;;;12.29;100.00
61318;BME280;47201;40.428;-8.436;2023-03-14T07:46:37;101434.53;;;13.31;100.00
61318;BME280;47201;40.428;-8.436;2023-03-14T07:48:38;101438.56;;;14.39;100.00
61318;BME280;47201;40.428;-8.436;2023-03-14T07:50:39;101443.91;;;15.45;100.00
61318;BME280;47201;40.428;-8.436;2023-03-14T07:52:40;101447.03;;;16.49;99.41
61318;BME280;47201;40.428;-8.436;2023-03-14T07:54:59;101451.34;;;17.65;84.62
61318;BME280;47201;40.428;-8.436;2023-03-14T07:57:01;101459.75;;;18.31;72.56
61318;BME280;47201;40.428;-8.436;2023-03-14T07:59:02;101471.56;;;18.94;71.24
61318;BME280;47201;40.428;-8.436;2023-03-14T08:01:04;101470.34;;;19.42;65.34
61318;BME280;47201;40.428;-8.436;2023-03-14T08:03:24;101476.28;;;20.17;64.63
61318;BME280;47201;40.428;-8.436;2023-03-14T08:05:25;101475.31;;;20.77;60.96
61318;BME280;47201;40.428;-8.436;2023-03-14T08:07:26;101481.75;;;21.26;59.45
61318;BME280;47201;40.428;-8.436;2023-03-14T08:09:26;101491.06;;;21.64;57.90
61318;BME280;47201;40.428;-8.436;2023-03-14T08:11:46;101495.75;;;22.30;56.89
61318;BME280;47201;40.428;-8.436;2023-03-14T08:13:46;101499.78;;;22.87;54.30
61318;BME280;47201;40.428;-8.436;2023-03-14T08:16:08;101492.97;;;23.44;53.00
61318;BME280;47201;40.428;-8.436;2023-03-14T08:18:08;101503.84;;;23.81;51.69
61318;BME280;47201;40.428;-8.436;2023-03-14T08:20:09;101496.50;;;23.24;53.47
61318;BME280;47201;40.428;-8.436;2023-03-14T08:22:11;101504.59;;;21.58;59.80
61318;BME280;47201;40.428;-8.436;2023-03-14T08:24:12;101510.69;;;20.80;62.90
61318;BME280;47201;40.428;-8.436;2023-03-14T08:26:12;101514.06;;;19.95;67.89
61318;BME280;47201;40.428;-8.436;2023-03-14T08:28:13;101509.72;;;19.58;70.23
61318;BME280;47201;40.428;-8.436;2023-03-14T08:30:14;101505.56;;;19.47;70.03
61318;BME280;47201;40.428;-8.436;2023-03-14T08:32:15;101508.69;;;20.28;67.35
61318;BME280;47201;40.428;-8.436;2023-03-14T08:34:17;101518.34;;;21.17;61.32
61318;BME280;47201;40.428;-8.436;2023-03-14T08:36:35;101518.69;;;22.58;57.33
61318;BME280;47201;40.428;-8.436;2023-03-14T08:38:55;101525.00;;;23.86;53.13
61318;BME280;47201;40.428;-8.436;2023-03-14T08:40:59;101527.84;;;24.80;50.96
61318;BME280;47201;40.428;-8.436;2023-03-14T08:43:00;101531.22;;;24.45;51.50
61318;BME280;47201;40.428;-8.436;2023-03-14T08:45:01;101536.75;;;23.61;54.75
61318;BME280;47201;40.428;-8.436;2023-03-14T08:47:05;101538.75;;;22.45;59.58
61318;BME280;47201;40.428;-8.436;2023-03-14T08:49:07;101538.03;;;21.65;64.14
61318;BME280;47201;40.428;-8.436;2023-03-14T08:51:09;101539.16;;;21.31;65.78
61318;BME280;47201;40.428;-8.436;2023-03-14T08:53:11;101544.59;;;22.06;63.87
61318;BME280;47201;40.428;-8.436;2023-03-14T08:55:11;101548.09;;;23.23;58.99
61318;BME280;47201;40.428;-8.436;2023-03-14T08:57:12;101543.59;;;24.08;55.68
61318;BME280;47201;40.428;-8.436;2023-03-14T08:59:13;101553.09;;;25.28;52.87
61318;BME280;47201;40.428;-8.436;2023-03-14T09:01:13;101559.66;;;26.10;51.33
61318;BME280;47201;40.428;-8.436;2023-03-14T09:03:14;101560.72;;;26.89;49.85
61318;BME280;47201;40.428;-8.436;2023-03-14T09:05:33;101556.47;;;27.32;50.67
61318;BME280;47201;40.428;-8.436;2023-03-14T09:07:34;101557.38;;;27.77;50.25
61318;BME280;47201;40.428;-8.436;2023-03-14T09:09:35;101560.38;;;27.87;51.54
61318;BME280;47201;40.428;-8.436;2023-03-14T09:11:55;101566.03;;;27.97;52.60
61318;BME280;47201;40.428;-8.436;2023-03-14T09:13:56;101563.00;;;27.89;54.13
61318;BME280;47201;40.428;-8.436;2023-03-14T09:16:15;101568.00;;;28.09;55.50
61318;BME280;47201;40.428;-8.436;2023-03-14T09:18:16;101561.66;;;28.54;55.48
61318;BME280;47201;40.428;-8.436;2023-03-14T09:20:17;101566.31;;;28.79;55.55
61318;BME280;47201;40.428;-8.436;2023-03-14T09:22:18;101565.84;;;29.27;54.87
61318;BME280;47201;40.428;-8.436;2023-03-14T09:24:41;101554.69;;;29.33;56.52
61318;BME280;47201;40.428;-8.436;2023-03-14T09:27:00;101560.78;;;29.75;56.40
61318;BME280;47201;40.428;-8.436;2023-03-14T09:29:20;101555.47;;;29.35;58.50
61318;BME280;47201;40.428;-8.436;2023-03-14T09:31:21;101552.00;;;29.06;60.40
61318;BME280;47201;40.428;-8.436;2023-03-14T09:33:25;101565.50;;;29.46;59.45
61318;BME280;47201;40.428;-8.436;2023-03-14T09:35:29;101564.13;;;29.53;60.94
61318;BME280;47201;40.428;-8.436;2023-03-14T09:37:39;101564.78;;;29.70;61.00
61318;BME280;47201;40.428;-8.436;2023-03-14T09:39:40;101569.84;;;30.39;59.40
61318;BME280;47201;40.428;-8.436;2023-03-14T09:41:41;101569.31;;;31.08;58.20
61318;BME280;47201;40.428;-8.436;2023-03-14T09:43:43;101563.16;;;31.66;57.94
61318;BME280;47201;40.428;-8.436;2023-03-14T09:45:46;101570.47;;;31.88;57.97
61318;BME280;47201;40.428;-8.436;2023-03-14T09:47:48;101568.41;;;32.15;57.76
61318;BME280;47201;40.428;-8.436;2023-03-14T09:49:49;101562.16;;;31.20;59.20
61318;BME280;47201;40.428;-8.436;2023-03-14T09:51:51;101565.53;;;30.86;61.58
61318;BME280;47201;40.428;-8.436;2023-03-14T09:53:54;101564.59;;;31.59;60.95
61318;BME280;47201;40.428;-8.436;2023-03-14T09:55:54;101560.41;;;32.13;59.95
61318;BME280;47201;40.428;-8.436;2023-03-14T09:57:58;101561.19;;;32.26;57.83
61318;BME280;47201;40.428;-8.436;2023-03-14T10:00:05;101561.09;;;33.16;56.78
61318;BME280;47201;40.428;-8.436;2023-03-14T10:02:21;101554.03;;;32.92;57.33
61318;BME280;47201;40.428;-8.436;2023-03-14T10:04:22;101563.59;;;32.64;59.64
61318;BME280;47201;40.428;-8.436;2023-03-14T10:06:32;101564.03;;;33.24;58.55
61318;BME280;47201;40.428;-8.436;2023-03-14T10:08:34;101567.97;;;32.76;60.47
61318;BME280;47201;40.428;-8.436;2023-03-14T10:10:38;101565.38;;;32.97;59.49
61318;BME280;47201;40.428;-8.436;2023-03-14T10:12:39;101570.31;;;32.69;59.39
61318;BME280;47201;40.428;-8.436;2023-03-14T10:14:47;101563.19;;;32.80;59.62
61318;BME280;47201;40.428;-8.436;2023-03-14T10:16:48;101563.91;;;32.93;59.63
61318;BME280;47201;40.428;-8.436;2023-03-14T10:18:49;101574.91;;;31.54;63.21
61318;BME280;47201;40.428;-8.436;2023-03-14T10:21:22;101571.44;;;30.54;64.50
61318;BME280;47201;40.428;-8.436;2023-03-14T10:23:27;101570.56;;;28.54;68.42
61318;BME280;47201;40.428;-8.436;2023-03-14T10:25:58;101565.59;;;28.19;68.58
61318;BME280;47201;40.428;-8.436;2023-03-14T10:28:01;101569.56;;;30.05;65.60
61318;BME280;47201;40.428;-8.436;2023-03-14T10:30:06;101569.50;;;31.89;63.12
61318;BME280;47201;40.428;-8.436;2023-03-14T10:32:10;101563.91;;;32.93;60.69
61318;BME280;47201;40.428;-8.436;2023-03-14T10:34:26;101569.94;;;33.93;59.36
61318;BME280;47201;40.428;-8.436;2023-03-14T10:36:28;101571.19;;;32.70;61.22
61318;BME280;47201;40.428;-8.436;2023-03-14T10:38:33;101567.53;;;32.59;62.31
61318;BME280;47201;40.428;-8.436;2023-03-14T10:40:53;101566.66;;;31.91;63.29
61318;BME280;47201;40.428;-8.436;2023-03-14T10:42:55;101562.50;;;32.21;63.23
61318;BME280;47201;40.428;-8.436;2023-03-14T10:44:58;101569.63;;;30.29;65.96
61318;BME280;47201;40.428;-8.436;2023-03-14T10:47:19;101565.56;;;27.90;70.76
61318;BME280;47201;40.428;-8.436;2023-03-14T10:49:40;101553.13;;;25.81;76.03
61318;BME280;47201;40.428;-8.436;2023-03-14T10:52:02;101560.81;;;24.21;79.21
61318;BME280;47201;40.428;-8.436;2023-03-14T10:54:20;101562.50;;;22.97;81.67
61318;BME280;47201;40.428;-8.436;2023-03-14T10:56:35;101554.66;;;22.46;84.44
61318;BME280;47201;40.428;-8.436;2023-03-14T10:58:39;101553.88;;;21.94;85.14
61318;BME280;47201;40.428;-8.436;2023-03-14T11:00:40;101546.00;;;21.38;87.93
61318;BME280;47201;40.428;-8.436;2023-03-14T11:11:46;101566.38;;;29.59;70.35
61318;BME280;47201;40.428;-8.436;2023-03-14T11:18:36;101567.84;;;25.90;74.64
61318;BME280;47201;40.428;-8.436;2023-03-14T11:20:46;101567.41;;;24.52;78.13
61318;BME280;47201;40.428;-8.436;2023-03-14T11:22:55;101563.56;;;22.69;80.45
61318;BME280;47201;40.428;-8.436;2023-03-14T11:29:19;101562.00;;;25.99;74.59
61318;BME280;47201;40.428;-8.436;2023-03-14T11:31:40;101557.00;;;27.69;71.79